createdAt,value
2018-12-01T00:02:05.005Z,82.79
2018-12-01T00:04:34.016Z,82.65
2018-12-01T00:07:03.087Z,83.14
2018-12-01T00:09:32.138Z,83.40
2018-12-01T00:12:01.302Z,83.59
2018-12-01T00:14:30.314Z,83.66
2018-12-01T00:16:59.302Z,83.59
2018-12-01T00:19:28.389Z,83.45
2018-12-01T00:21:57.483Z,83.38
2018-12-01T00:24:26.465Z,83.14
2018-12-01T00:26:55.464Z,83.29
2018-12-01T00:29:24.537Z,83.16
2018-12-01T00:31:53.527Z,83.21
2018-12-01T00:34:25.492Z,83.55
2018-12-01T00:36:54.507Z,83.36
2018-12-01T00:39:23.514Z,83.40
2018-12-01T00:41:52.578Z,83.43
2018-12-01T00:44:21.591Z,83.71
2018-12-01T00:46:50.803Z,83.45
2018-12-01T00:51:55.089Z,83.49
2018-12-01T00:54:24.237Z,83.53
2018-12-01T00:56:53.249Z,83.56
2018-12-01T00:59:22.297Z,83.50
2018-12-01T01:01:51.304Z,83.31
2018-12-01T01:04:20.408Z,83.31
2018-12-01T01:06:49.446Z,83.12
2018-12-01T01:09:18.471Z,83.30
2018-12-01T01:11:47.521Z,83.13
2018-12-01T01:14:16.536Z,83.20
2018-12-01T01:16:45.562Z,83.14
2018-12-01T01:19:14.587Z,83.47
2018-12-01T01:21:43.619Z,83.44
2018-12-01T01:24:12.624Z,83.82
2018-12-01T01:26:41.637Z,83.67
2018-12-01T01:29:10.631Z,84.23
2018-12-01T01:31:39.619Z,84.18
2018-12-01T01:34:08.659Z,84.17
2018-12-01T01:36:37.671Z,84.03
2018-12-01T01:39:07.883Z,84.29
2018-12-01T01:41:36.898Z,84.56
2018-12-01T01:44:05.937Z,84.19
2018-12-01T01:46:34.981Z,84.23
2018-12-01T01:49:04.003Z,84.65
2018-12-01T01:51:32.993Z,84.07
2018-12-01T01:54:02.002Z,84.70
2018-12-01T01:56:31.032Z,84.74
2018-12-01T01:59:00.014Z,84.82
2018-12-01T02:01:29.021Z,84.75
2018-12-01T02:03:58.010Z,84.75
2018-12-01T02:06:27.015Z,84.97
2018-12-01T02:08:57.248Z,85.37
2018-12-01T02:11:26.289Z,85.51
2018-12-01T02:13:55.367Z,85.16
2018-12-01T02:16:24.539Z,85.25
2018-12-01T02:18:53.656Z,84.95
2018-12-01T02:21:25.106Z,84.41
2018-12-01T02:23:54.279Z,85.28
2018-12-01T02:26:23.282Z,85.50
2018-12-01T02:28:52.249Z,85.43
2018-12-01T02:31:21.263Z,85.27
2018-12-01T02:33:51.170Z,85.41
2018-12-01T02:36:20.202Z,85.84
2018-12-01T02:38:49.190Z,85.72
2018-12-01T02:41:18.306Z,85.71
2018-12-01T02:43:57.198Z,85.79
2018-12-01T02:46:42.186Z,85.81
2018-12-01T02:49:11.178Z,85.97
2018-12-01T02:51:40.226Z,85.89
2018-12-01T02:54:09.249Z,85.71
2018-12-01T02:56:38.308Z,85.85
2018-12-01T02:59:07.311Z,85.68
2018-12-01T03:01:36.313Z,85.94
2018-12-01T03:04:05.366Z,85.99
2018-12-01T03:06:34.377Z,86.04
2018-12-01T03:09:03.400Z,85.78
2018-12-01T03:11:32.439Z,86.02
2018-12-01T03:14:01.427Z,86.16
2018-12-01T03:16:30.462Z,86.16
2018-12-01T03:18:59.481Z,86.24
2018-12-01T03:21:28.491Z,86.21
2018-12-01T03:23:57.496Z,86.24
2018-12-01T03:26:27.545Z,86.29
2018-12-01T03:28:56.548Z,86.36
2018-12-01T03:31:25.662Z,85.97
2018-12-01T03:33:54.808Z,86.32
2018-12-01T03:36:23.927Z,86.40
2018-12-01T03:38:52.919Z,86.16
2018-12-01T03:41:21.939Z,85.90
2018-12-01T03:43:50.991Z,85.96
2018-12-01T03:46:19.990Z,86.18
2018-12-01T03:48:49.010Z,86.10
2018-12-01T03:51:18.010Z,86.01
2018-12-01T03:53:47.012Z,85.88
2018-12-01T03:56:16.003Z,86.03
2018-12-01T03:58:45.049Z,86.05
2018-12-01T04:01:14.039Z,85.87
2018-12-01T04:03:43.031Z,86.13
2018-12-01T04:06:12.049Z,85.82
2018-12-01T04:08:41.070Z,86.31
2018-12-01T04:11:10.081Z,86.65
2018-12-01T04:13:39.084Z,86.63
2018-12-01T04:16:08.099Z,86.89
2018-12-01T04:18:37.235Z,86.86
2018-12-01T04:21:06.651Z,86.67
2018-12-01T04:23:35.646Z,86.84
2018-12-01T04:26:04.639Z,86.88
2018-12-01T04:28:33.740Z,87.21
2018-12-01T04:31:02.733Z,87.38
2018-12-01T04:33:31.730Z,87.21
2018-12-01T04:36:00.766Z,87.15
2018-12-01T04:38:29.807Z,87.11
2018-12-01T04:40:58.819Z,86.88
2018-12-01T04:43:27.834Z,87.23
2018-12-01T04:45:56.837Z,87.50
2018-12-01T04:48:25.894Z,87.52
2018-12-01T04:50:54.869Z,87.49
2018-12-01T04:53:23.961Z,87.68
2018-12-01T04:55:52.950Z,87.39
2018-12-01T04:58:22.054Z,87.34
2018-12-01T05:00:51.037Z,87.34
2018-12-01T05:03:20.066Z,87.12
2018-12-01T05:05:49.101Z,86.97
2018-12-01T05:08:18.115Z,86.96
2018-12-01T05:10:47.132Z,86.61
2018-12-01T05:13:16.144Z,86.71
2018-12-01T05:15:45.184Z,86.83
2018-12-01T05:18:14.171Z,86.65
2018-12-01T05:20:43.200Z,86.58
2018-12-01T05:23:12.232Z,86.73
2018-12-01T05:25:41.251Z,86.37
2018-12-01T05:28:10.252Z,86.29
2018-12-01T05:30:40.367Z,85.90
2018-12-01T05:33:09.389Z,85.95
2018-12-01T05:35:38.376Z,86.15
2018-12-01T05:38:07.401Z,85.76
2018-12-01T05:40:36.375Z,85.71
2018-12-01T05:43:05.991Z,85.98
2018-12-01T05:45:34.998Z,85.64
2018-12-01T05:48:04.028Z,85.52
2018-12-01T05:50:33.048Z,85.42
2018-12-01T05:53:02.035Z,85.38
2018-12-01T05:55:31.056Z,85.82
2018-12-01T05:58:00.091Z,85.84
2018-12-01T06:00:29.153Z,86.03
2018-12-01T06:02:58.169Z,85.96
2018-12-01T06:05:27.187Z,85.57
2018-12-01T06:07:56.210Z,85.71
2018-12-01T06:10:25.403Z,85.83
2018-12-01T06:12:54.361Z,85.39
2018-12-01T06:15:23.355Z,85.46
2018-12-01T06:17:55.423Z,85.71
2018-12-01T06:20:24.484Z,85.83
2018-12-01T06:22:56.326Z,85.80
2018-12-01T06:25:25.311Z,86.08
2018-12-01T06:27:54.332Z,86.10
2018-12-01T06:30:23.359Z,86.38
2018-12-01T06:32:52.761Z,86.29
2018-12-01T06:35:21.812Z,86.48
2018-12-01T06:37:50.849Z,86.41
2018-12-01T06:40:20.694Z,86.15
2018-12-01T06:42:49.833Z,86.39
2018-12-01T06:45:18.991Z,86.24
2018-12-01T06:47:47.988Z,85.83
2018-12-01T06:50:18.065Z,86.48
2018-12-01T06:52:47.066Z,86.54
2018-12-01T06:55:16.050Z,86.39
2018-12-01T06:57:46.118Z,86.31
2018-12-01T07:00:16.853Z,86.38
2018-12-01T07:02:46.479Z,86.08
2018-12-01T07:05:16.293Z,86.45
2018-12-01T07:07:45.310Z,86.69
2018-12-01T07:10:16.417Z,86.54
2018-12-01T07:12:49.613Z,86.03
2018-12-01T07:15:20.451Z,86.03
2018-12-01T07:17:49.516Z,86.37
2018-12-01T07:20:18.539Z,86.10
2018-12-01T07:22:47.642Z,86.37
2018-12-01T07:25:16.691Z,86.14
2018-12-01T07:27:45.726Z,86.50
2018-12-01T07:30:15.297Z,86.26
2018-12-01T07:32:45.050Z,85.98
2018-12-01T07:35:14.254Z,86.43
2018-12-01T07:37:43.398Z,86.14
2018-12-01T07:40:13.971Z,85.93
2018-12-01T07:42:43.887Z,86.30
2018-12-01T07:45:14.101Z,86.18
2018-12-01T07:47:43.277Z,85.90
2018-12-01T07:50:15.563Z,86.15
2018-12-01T07:52:46.286Z,85.77
2018-12-01T07:55:15.338Z,85.61
2018-12-01T07:57:44.471Z,85.27
2018-12-01T08:00:14.781Z,85.60
2018-12-01T08:02:46.628Z,85.17
2018-12-01T08:05:16.660Z,85.32
2018-12-01T08:07:49.614Z,85.06
2018-12-01T08:10:19.735Z,84.91
2018-12-01T08:12:48.829Z,84.71
2018-12-01T08:15:18.499Z,84.56
2018-12-01T08:17:47.880Z,84.71
2018-12-01T08:20:19.860Z,84.58
2018-12-01T08:22:51.729Z,84.38
2018-12-01T08:25:23.784Z,84.12
2018-12-01T08:27:56.066Z,83.89
2018-12-01T08:30:27.326Z,83.24
2018-12-01T08:32:57.882Z,82.81
2018-12-01T08:35:28.174Z,82.79
2018-12-01T08:37:58.633Z,82.87
2018-12-01T08:40:28.745Z,82.61
2018-12-01T08:42:57.763Z,82.13
2018-12-01T08:45:26.808Z,82.20
2018-12-01T08:47:55.881Z,82.00
2018-12-01T08:50:25.041Z,81.53
2018-12-01T08:52:54.169Z,81.69
2018-12-01T08:55:25.198Z,81.49
2018-12-01T08:57:55.748Z,81.20
2018-12-01T09:00:31.924Z,82.12
2018-12-01T09:03:03.703Z,81.97
2018-12-01T09:05:32.907Z,81.76
2018-12-01T09:08:01.926Z,81.23
2018-12-01T09:10:30.980Z,81.45
2018-12-01T09:13:01.807Z,82.04
2018-12-01T09:15:29.066Z,81.57
2018-12-01T09:17:58.074Z,81.31
2018-12-01T09:20:27.114Z,80.80
2018-12-01T09:22:56.270Z,80.59
2018-12-01T09:25:25.341Z,80.49
2018-12-01T09:27:54.445Z,80.32
2018-12-01T09:30:24.842Z,80.24
2018-12-01T09:32:54.922Z,80.14
2018-12-01T09:35:24.736Z,80.01
2018-12-01T09:37:53.839Z,79.94
2018-12-01T09:40:23.592Z,79.79
2018-12-01T09:42:52.634Z,79.98
2018-12-01T09:45:23.622Z,79.67
2018-12-01T09:47:53.597Z,79.31
2018-12-01T09:50:22.700Z,79.07
2018-12-01T09:52:53.030Z,79.31
2018-12-01T09:55:25.354Z,79.02
2018-12-01T09:57:54.481Z,78.71
2018-12-01T10:00:27.792Z,78.12
2018-12-01T10:02:56.825Z,78.17
2018-12-01T10:05:25.921Z,77.95
2018-12-01T10:07:55.094Z,77.99
2018-12-01T10:10:24.938Z,77.87
2018-12-01T10:12:55.184Z,77.53
2018-12-01T10:15:26.221Z,77.87
2018-12-01T10:17:55.283Z,77.29
2018-12-01T10:20:25.601Z,76.95
2018-12-01T10:22:54.709Z,76.83
2018-12-01T10:25:24.684Z,76.90
2018-12-01T10:27:53.730Z,77.40
2018-12-01T10:30:22.914Z,77.81
2018-12-01T10:32:52.468Z,78.06
2018-12-01T10:35:23.754Z,77.96
2018-12-01T10:38:03.487Z,77.67
2018-12-01T10:40:32.557Z,77.50
2018-12-01T10:43:01.770Z,77.50
2018-12-01T10:45:30.821Z,77.76
2018-12-01T10:47:59.891Z,77.88
2018-12-01T10:50:28.940Z,77.39
2018-12-01T10:52:57.963Z,76.89
2018-12-01T10:55:29.047Z,76.75
2018-12-01T10:58:01.408Z,76.74
2018-12-01T11:00:36.291Z,76.73
2018-12-01T11:03:06.713Z,76.35
2018-12-01T11:05:36.712Z,75.98
2018-12-01T11:08:07.679Z,75.82
2018-12-01T11:10:36.854Z,75.48
2018-12-01T11:13:06.042Z,75.87
2018-12-01T11:15:35.096Z,75.70
2018-12-01T11:18:04.247Z,75.51
2018-12-01T11:20:33.270Z,75.39
2018-12-01T11:23:02.319Z,74.75
2018-12-01T11:25:31.335Z,75.21
2018-12-01T11:28:00.343Z,74.79
2018-12-01T11:30:29.374Z,74.76
2018-12-01T11:32:58.403Z,74.49
2018-12-01T11:35:32.390Z,74.83
2018-12-01T11:38:01.504Z,74.50
2018-12-01T11:40:30.571Z,74.24
2018-12-01T11:42:59.615Z,74.04
2018-12-01T11:45:28.629Z,74.15
2018-12-01T11:47:57.661Z,74.49
2018-12-01T11:50:26.750Z,73.86
2018-12-01T11:52:55.820Z,73.65
2018-12-01T11:55:24.867Z,73.90
2018-12-01T11:57:54.365Z,73.96
2018-12-01T12:00:24.787Z,73.61
2018-12-01T12:02:54.268Z,73.35
2018-12-01T12:05:23.939Z,73.40
2018-12-01T12:08:04.222Z,73.64
2018-12-01T12:10:33.208Z,73.63
2018-12-01T12:13:02.278Z,73.81
2018-12-01T12:15:31.373Z,73.78
2018-12-01T12:18:03.783Z,74.33
2018-12-01T12:20:32.786Z,74.00
2018-12-01T12:23:01.857Z,74.04
2018-12-01T12:25:30.884Z,73.54
2018-12-01T12:28:16.929Z,73.04
2018-12-01T12:30:45.945Z,73.12
2018-12-01T12:33:15.596Z,73.87
2018-12-01T12:35:44.691Z,73.79
2018-12-01T12:38:13.745Z,73.62
2018-12-01T12:40:42.795Z,73.18
2018-12-01T12:43:11.905Z,73.04
2018-12-01T12:45:41.169Z,72.71
2018-12-01T12:48:10.240Z,72.87
2018-12-01T12:50:39.235Z,72.78
2018-12-01T12:53:08.264Z,73.37
2018-12-01T12:55:39.254Z,73.57
2018-12-01T12:58:08.299Z,73.30
2018-12-01T13:00:37.403Z,73.66
2018-12-01T13:03:08.711Z,73.67
2018-12-01T13:05:46.102Z,73.04
2018-12-01T13:08:16.660Z,73.09
2018-12-01T13:10:45.646Z,73.48
2018-12-01T13:13:14.682Z,73.31
2018-12-01T13:15:43.728Z,73.36
2018-12-01T13:18:27.811Z,73.58
2018-12-01T13:20:56.848Z,73.33
2018-12-01T13:23:25.860Z,73.53
2018-12-01T13:25:54.883Z,73.14
2018-12-01T13:28:24.808Z,73.11
2018-12-01T13:30:56.271Z,73.43
2018-12-01T13:33:25.700Z,73.73
2018-12-01T13:35:54.873Z,73.79
2018-12-01T13:38:23.968Z,73.62
2018-12-01T13:41:00.745Z,73.98
2018-12-01T13:43:29.801Z,74.05
2018-12-01T13:45:58.840Z,73.69
2018-12-01T13:48:27.882Z,73.51
2018-12-01T13:51:08.639Z,73.41
2018-12-01T13:53:37.670Z,73.46
2018-12-01T13:56:06.706Z,73.35
2018-12-01T13:58:35.787Z,73.60
2018-12-01T14:01:04.843Z,73.93
2018-12-01T14:03:33.853Z,73.63
2018-12-01T14:06:02.910Z,73.87
2018-12-01T14:08:34.934Z,74.22
2018-12-01T14:11:03.959Z,74.46
2018-12-01T14:13:35.093Z,74.55
2018-12-01T14:16:04.148Z,74.26
2018-12-01T14:18:33.158Z,74.22
2018-12-01T14:21:02.192Z,74.13
2018-12-01T14:23:31.247Z,74.07
2018-12-01T14:26:00.266Z,74.26
2018-12-01T14:28:29.284Z,74.63
2018-12-01T14:30:58.477Z,74.19
2018-12-01T14:33:27.715Z,74.11
2018-12-01T14:35:56.773Z,74.24
2018-12-01T14:38:25.809Z,74.22
2018-12-01T14:40:54.965Z,75.09
2018-12-01T14:43:24.025Z,76.10
2018-12-01T14:45:53.680Z,76.64
2018-12-01T14:48:28.202Z,77.22
2018-12-01T14:50:58.121Z,77.29
2018-12-01T14:53:27.210Z,77.45
2018-12-01T14:55:56.205Z,77.10
2018-12-01T14:58:25.658Z,76.98
2018-12-01T15:00:54.798Z,76.95
2018-12-01T15:03:23.848Z,76.70
2018-12-01T15:05:52.860Z,77.04
2018-12-01T15:08:21.875Z,76.86
2018-12-01T15:10:50.864Z,76.95
2018-12-01T15:13:19.991Z,76.49
2018-12-01T15:15:49.218Z,76.40
2018-12-01T15:18:18.248Z,76.35
2018-12-01T15:20:47.751Z,76.26
2018-12-01T15:23:16.982Z,76.46
2018-12-01T15:25:45.990Z,76.42
2018-12-01T15:28:15.071Z,76.09
2018-12-01T15:30:44.306Z,76.12
2018-12-01T15:33:14.692Z,76.14
2018-12-01T15:35:45.791Z,75.86
2018-12-01T15:38:15.013Z,76.09
2018-12-01T15:40:46.298Z,76.34
2018-12-01T15:43:15.420Z,76.04
2018-12-01T15:45:44.612Z,75.98
2018-12-01T15:48:13.685Z,76.20
2018-12-01T15:51:01.809Z,76.09
2018-12-01T15:53:34.379Z,76.32
2018-12-01T15:56:03.422Z,76.68
2018-12-01T15:58:32.453Z,76.88
2018-12-01T16:01:01.475Z,77.34
2018-12-01T16:03:30.567Z,77.85
2018-12-01T16:06:00.256Z,77.64
2018-12-01T16:08:29.303Z,78.21
2018-12-01T16:10:58.334Z,78.28
2018-12-01T16:13:27.848Z,78.16
2018-12-01T16:16:15.341Z,78.60
2018-12-01T16:18:44.374Z,78.84
2018-12-01T16:21:20.694Z,78.94
2018-12-01T16:23:53.486Z,78.93
2018-12-01T16:26:22.513Z,78.68
2018-12-01T16:28:53.001Z,79.08
2018-12-01T16:31:22.006Z,78.94
2018-12-01T16:33:51.045Z,79.07
2018-12-01T16:36:24.415Z,79.18
2018-12-01T16:38:56.665Z,79.38
2018-12-01T16:41:27.996Z,79.32
2018-12-01T16:43:57.021Z,79.29
2018-12-01T16:46:26.101Z,79.38
2018-12-01T16:48:55.310Z,79.54
2018-12-01T16:51:24.343Z,79.42
2018-12-01T16:53:53.364Z,79.45
2018-12-01T16:56:22.393Z,79.54
2018-12-01T16:58:56.409Z,79.92
2018-12-01T17:01:25.438Z,79.91
2018-12-01T17:03:57.390Z,80.03
2018-12-01T17:06:26.439Z,80.03
2018-12-01T17:08:56.507Z,79.82
2018-12-01T17:11:25.522Z,79.84
2018-12-01T17:13:54.520Z,79.61
2018-12-01T17:16:23.528Z,79.62
2018-12-01T17:18:52.553Z,79.36
2018-12-01T17:21:21.619Z,79.79
2018-12-01T17:23:52.392Z,79.53
2018-12-01T17:26:21.579Z,79.10
2018-12-01T17:28:51.516Z,78.74
2018-12-01T17:31:20.645Z,79.26
2018-12-01T17:33:49.662Z,79.17
2018-12-01T17:36:18.661Z,78.49
2018-12-01T17:38:47.660Z,78.52
2018-12-01T17:41:20.506Z,78.48
2018-12-01T17:43:53.054Z,78.21
2018-12-01T17:46:22.072Z,78.03
2018-12-01T17:48:51.079Z,78.43
2018-12-01T17:51:20.096Z,78.23
2018-12-01T17:53:51.382Z,78.24
2018-12-01T17:56:20.424Z,78.32
2018-12-01T17:58:49.464Z,77.95
2018-12-01T18:01:18.471Z,78.15
2018-12-01T18:03:48.605Z,78.26
2018-12-01T18:06:17.612Z,78.07
2018-12-01T18:08:46.639Z,77.82
2018-12-01T18:11:16.197Z,77.48
2018-12-01T18:13:55.857Z,77.44
2018-12-01T18:16:24.895Z,77.28
2018-12-01T18:18:53.932Z,77.43
2018-12-01T18:21:22.955Z,77.12
2018-12-01T18:23:51.987Z,76.96
2018-12-01T18:26:20.982Z,77.41
2018-12-01T18:28:51.250Z,77.60
2018-12-01T18:31:23.870Z,77.37
2018-12-01T18:34:00.979Z,77.24
2018-12-01T18:36:35.638Z,77.35
2018-12-01T18:39:09.014Z,77.32
2018-12-01T18:41:38.067Z,77.17
2018-12-01T18:44:07.133Z,77.40
2018-12-01T18:46:37.427Z,77.52
2018-12-01T18:49:06.983Z,77.66
2018-12-01T18:51:36.033Z,77.34
2018-12-01T18:54:05.332Z,77.15
2018-12-01T18:56:41.267Z,77.30
2018-12-01T18:59:10.289Z,77.47
2018-12-01T19:01:39.296Z,77.54
2018-12-01T19:04:08.359Z,76.92
2018-12-01T19:06:37.361Z,77.12
2018-12-01T19:09:07.900Z,77.34
2018-12-01T19:11:36.899Z,76.98
2018-12-01T19:14:06.860Z,77.31
2018-12-01T19:16:35.912Z,77.41
2018-12-01T19:19:05.113Z,77.26
2018-12-01T19:21:34.149Z,77.21
2018-12-01T19:24:11.243Z,77.10
2018-12-01T19:26:40.282Z,77.03
2018-12-01T19:29:09.319Z,77.07
2018-12-01T19:31:38.345Z,77.45
2018-12-01T19:34:38.334Z,77.41
2018-12-01T19:37:10.291Z,77.63
2018-12-01T19:39:39.327Z,77.31
2018-12-01T19:42:08.414Z,77.35
2018-12-01T19:44:55.780Z,77.54
2018-12-01T19:47:24.779Z,77.59
2018-12-01T19:49:53.829Z,77.34
2018-12-01T19:52:22.849Z,77.48
2018-12-01T19:54:59.810Z,77.68
2018-12-01T19:57:28.882Z,78.01
2018-12-01T19:59:57.926Z,78.02
2018-12-01T20:02:29.253Z,77.79
2018-12-01T20:05:05.245Z,78.09
2018-12-01T20:07:34.343Z,78.16
2018-12-01T20:10:03.801Z,78.33
2018-12-01T20:12:32.898Z,77.99
2018-12-01T20:15:01.932Z,78.35
2018-12-01T20:17:30.996Z,78.74
2018-12-01T20:20:00.046Z,78.46
2018-12-01T20:22:29.689Z,78.68
2018-12-01T20:24:58.715Z,78.58
2018-12-01T20:27:27.756Z,78.48
2018-12-01T20:29:56.777Z,78.52
2018-12-01T20:32:25.823Z,78.50
2018-12-01T20:34:54.902Z,78.35
2018-12-01T20:37:23.908Z,78.56
2018-12-01T20:39:52.980Z,78.35
2018-12-01T20:42:23.009Z,78.22
2018-12-01T20:44:52.819Z,78.48
2018-12-01T20:47:21.830Z,78.21
2018-12-01T20:49:50.919Z,78.66
2018-12-01T20:52:19.980Z,78.13
2018-12-01T20:54:49.041Z,78.34
2018-12-01T20:57:23.519Z,78.08
2018-12-01T20:59:52.685Z,78.39
2018-12-01T21:02:21.724Z,78.53
2018-12-01T21:04:50.778Z,78.64
2018-12-01T21:07:19.819Z,78.41
2018-12-01T21:09:48.890Z,78.13
2018-12-01T21:12:18.198Z,78.12
2018-12-01T21:14:47.817Z,78.34
2018-12-01T21:17:16.845Z,78.31
2018-12-01T21:19:46.091Z,78.34
2018-12-01T21:22:15.113Z,78.39
2018-12-01T21:24:44.136Z,77.92
2018-12-01T21:27:13.201Z,77.96
2018-12-01T21:29:42.253Z,78.10
2018-12-01T21:32:11.280Z,77.50
2018-12-01T21:34:40.320Z,77.18
2018-12-01T21:37:10.416Z,77.64
2018-12-01T21:39:39.469Z,77.43
2018-12-01T21:42:08.582Z,77.37
2018-12-01T21:44:37.603Z,76.98
2018-12-01T21:47:13.747Z,77.59
2018-12-01T21:49:42.791Z,78.33
2018-12-01T21:52:11.844Z,78.45
2018-12-01T21:54:40.901Z,79.19
2018-12-01T21:57:10.543Z,79.40
2018-12-01T21:59:39.552Z,80.07
2018-12-01T22:02:08.866Z,80.06
2018-12-01T22:04:37.958Z,80.16
2018-12-01T22:07:06.946Z,80.67
2018-12-01T22:09:35.978Z,80.99
2018-12-01T22:12:05.302Z,81.11
2018-12-01T22:14:34.304Z,80.69
2018-12-01T22:17:03.338Z,81.58
2018-12-01T22:19:32.348Z,81.21
2018-12-01T22:22:01.401Z,81.50
2018-12-01T22:24:30.418Z,81.80
2018-12-01T22:26:59.416Z,81.84
2018-12-01T22:29:28.448Z,81.81
2018-12-01T22:31:57.493Z,82.43
2018-12-01T22:34:26.661Z,81.81
2018-12-01T22:36:56.367Z,82.08
2018-12-01T22:39:24.660Z,82.18
2018-12-01T22:41:53.651Z,81.92
2018-12-01T22:44:22.676Z,82.05
2018-12-01T22:46:51.708Z,82.14
2018-12-01T22:49:20.751Z,82.36
2018-12-01T22:51:49.861Z,82.17
2018-12-01T22:54:19.172Z,82.83
2018-12-01T22:56:48.177Z,83.66
2018-12-01T22:59:17.211Z,84.07
2018-12-01T23:01:46.254Z,84.82
2018-12-01T23:04:15.282Z,85.27
2018-12-01T23:06:44.328Z,86.31
2018-12-01T23:09:13.422Z,86.15
2018-12-01T23:11:42.464Z,86.65
2018-12-01T23:14:11.500Z,87.08
2018-12-01T23:16:40.509Z,87.00
2018-12-01T23:19:09.511Z,87.55
2018-12-01T23:21:38.539Z,87.31
2018-12-01T23:24:07.575Z,87.78
2018-12-01T23:26:36.634Z,88.01
2018-12-01T23:29:05.990Z,88.35
2018-12-01T23:31:35.044Z,88.48
2018-12-01T23:34:04.107Z,88.81
2018-12-01T23:36:33.124Z,88.68
2018-12-01T23:39:02.156Z,89.13
2018-12-01T23:41:31.177Z,88.81
2018-12-01T23:44:00.273Z,88.73
2018-12-01T23:46:29.274Z,88.80
2018-12-01T23:48:58.270Z,88.98
2018-12-01T23:51:27.297Z,88.80
2018-12-01T23:53:56.318Z,88.93
2018-12-01T23:56:25.338Z,88.81
2018-12-01T23:58:54.331Z,88.76
